Terminal Aerodrome Forecast
Issued by NWS

Home | Current Version | Previous Version | Text Only | Print | Product List | Glossary On
Versions: 1 2 3 4 5 6 7 8 9 10 11 12 13 14 15
000
FTUS45 KLKN 212340
TAFTPH
TAF
KTPH 212340Z 2200/2224 34007KT P6SM BKN070 BKN200
     FM221200 34008KT P6SM BKN060 BKN120
     FM221900 27014G24KT P6SM VCSH OVC060
      TEMPO 2222/2224 4SM -SHSN OVC030=

USA.gov is the U.S. government's official web portal to all federal, state and local government web resources and services.